Time;durP1;ratioP1;P1;durP2;ratioP2;P2;SDS_P1;SDS_P2;PMS_P1;PMS_P2;Temp;Humidity;BMP_temperature;BMP_pressure;BME280_temperature;BME280_humidity;BME280_pressure;Samples;Min_cycle;Max_cycle;Signal;HPM_P1;HPM_P2
2021/05/05 00:01:54;;;;;;;8.25;5.33;;;;;;;4.82;57.83;100145.80;1732529;81;21077;-67
2021/05/05 00:04:23;;;;;;;10.48;5.62;;;;;;;4.79;57.89;100141.59;1737305;81;21027;-68
2021/05/05 00:06:51;;;;;;;11.95;5.45;;;;;;;4.76;57.96;100140.48;1729943;82;21959;-68
2021/05/05 00:09:19;;;;;;;10.15;5.70;;;;;;;4.76;57.98;100135.72;1750156;81;21380;-69
2021/05/05 00:11:46;;;;;;;8.95;5.15;;;;;;;4.74;58.03;100138.89;1734534;81;21141;-68
2021/05/05 00:14:15;;;;;;;9.23;4.92;;;;;;;4.72;58.15;100138.95;1737848;81;21149;-68
2021/05/05 00:16:43;;;;;;;8.60;4.95;;;;;;;4.72;58.16;100140.73;1759914;81;21588;-68
2021/05/05 00:19:10;;;;;;;9.58;5.05;;;;;;;4.70;58.29;100136.06;1760187;81;22065;-68
2021/05/05 00:21:39;;;;;;;7.95;4.80;;;;;;;4.69;58.32;100140.45;1732718;81;21161;-67
2021/05/05 00:24:09;;;;;;;7.50;4.15;;;;;;;4.69;58.30;100139.62;1740247;81;21134;-67
2021/05/05 00:26:36;;;;;;;8.35;4.28;;;;;;;4.70;58.19;100146.53;1748641;81;21178;-68
2021/05/05 00:29:05;;;;;;;7.97;3.90;;;;;;;4.70;58.15;100143.91;1730396;81;21119;-67
2021/05/05 00:31:33;;;;;;;7.67;4.22;;;;;;;4.70;58.10;100141.30;1741285;81;22065;-67
2021/05/05 00:34:05;;;;;;;5.92;3.75;;;;;;;4.70;58.16;100134.29;1725863;81;21201;-67
2021/05/05 00:36:32;;;;;;;8.33;4.10;;;;;;;4.71;58.15;100142.52;1716485;83;21217;-67
2021/05/05 00:39:01;;;;;;;6.83;4.00;;;;;;;4.69;58.20;100139.62;1746978;81;21081;-68
2021/05/05 00:41:29;;;;;;;6.37;3.80;;;;;;;4.70;58.31;100142.61;1739206;81;21057;-67
2021/05/05 00:43:57;;;;;;;7.05;4.00;;;;;;;4.70;58.23;100142.61;1717949;81;22083;-67
2021/05/05 00:46:25;;;;;;;7.60;4.10;;;;;;;4.70;58.15;100144.75;1721678;82;21125;-67
2021/05/05 00:48:54;;;;;;;7.50;3.85;;;;;;;4.71;58.17;100139.89;1730601;82;21136;-67
2021/05/05 00:51:22;;;;;;;10.90;4.08;;;;;;;4.72;58.15;100140.73;1722963;82;21074;-67
2021/05/05 00:53:52;;;;;;;6.33;3.67;;;;;;;4.74;58.11;100137.59;1728040;80;21077;-68
2021/05/05 00:56:20;;;;;;;5.53;3.90;;;;;;;4.74;57.99;100137.59;1714261;82;22092;-67
2021/05/05 00:58:48;;;;;;;7.03;4.28;;;;;;;4.74;57.93;100133.20;1725752;81;21171;-68
2021/05/05 01:01:16;;;;;;;9.73;4.28;;;;;;;4.74;57.89;100134.50;1726857;82;21133;-67
2021/05/05 01:03:44;;;;;;;6.75;4.00;;;;;;;4.73;57.84;100132.83;1708805;82;21161;-67
2021/05/05 01:06:12;;;;;;;7.12;4.45;;;;;;;4.73;57.89;100147.21;1735829;82;21189;-67
2021/05/05 01:08:40;;;;;;;7.92;4.70;;;;;;;4.70;57.90;100128.22;1754364;81;22077;-67
2021/05/05 01:11:08;;;;;;;9.03;4.45;;;;;;;4.70;57.80;100132.14;1728122;81;21578;-70
2021/05/05 01:13:36;;;;;;;6.70;4.12;;;;;;;4.70;57.96;100131.67;1739611;81;21106;-67
2021/05/05 01:16:04;;;;;;;7.92;4.95;;;;;;;4.69;57.99;100125.23;1731416;82;21121;-67
2021/05/05 01:18:33;;;;;;;11.28;4.78;;;;;;;4.67;58.00;100125.80;1716665;83;21176;-67
2021/05/05 01:21:02;;;;;;;7.90;4.12;;;;;;;4.66;58.10;100129.34;1741474;81;23006;-67
2021/05/05 01:23:31;;;;;;;7.75;4.28;;;;;;;4.63;58.06;100126.88;1712376;81;21093;-67
2021/05/05 01:25:59;;;;;;;10.53;4.85;;;;;;;4.60;58.11;100125.30;1733283;81;21307;-68
2021/05/05 01:28:28;;;;;;;8.18;4.15;;;;;;;4.59;58.24;100122.31;1731694;82;21132;-67
2021/05/05 01:30:57;;;;;;;8.10;4.70;;;;;;;4.57;58.21;100119.79;1734034;82;21109;-67
2021/05/05 01:33:25;;;;;;;6.37;3.58;;;;;;;4.58;58.23;100117.55;1727361;81;22066;-67
2021/05/05 01:35:53;;;;;;;8.13;4.00;;;;;;;4.57;58.24;100115.03;1748303;81;21136;-67
2021/05/05 01:38:21;;;;;;;6.33;3.87;;;;;;;4.55;58.26;100103.35;1730638;81;21057;-67
2021/05/05 01:40:51;;;;;;;8.85;4.17;;;;;;;4.54;58.39;100096.44;1734274;81;21077;-67
2021/05/05 01:43:19;;;;;;;5.87;3.90;;;;;;;4.53;58.45;100099.95;1747500;81;21041;-67
2021/05/05 01:45:46;;;;;;;9.58;4.12;;;;;;;4.51;58.51;100097.06;1732808;82;22058;-69
2021/05/05 01:48:15;;;;;;;8.10;3.87;;;;;;;4.49;58.54;100093.23;1728343;82;21161;-68
2021/05/05 01:50:43;;;;;;;7.00;4.22;;;;;;;4.46;58.56;100093.43;1723580;82;21163;-69
2021/05/05 01:53:14;;;;;;;6.15;4.10;;;;;;;4.45;58.68;100092.22;1710062;82;21109;-69
2021/05/05 01:55:44;;;;;;;7.70;4.00;;;;;;;4.42;58.77;100087.14;1742075;79;21054;-68
2021/05/05 01:58:12;;;;;;;5.37;4.03;;;;;;;4.38;58.78;100086.49;1723031;81;22611;-68
2021/05/05 02:00:40;;;;;;;5.50;3.72;;;;;;;4.34;58.88;100087.59;1751646;81;21164;-68
2021/05/05 02:03:10;;;;;;;6.47;3.50;;;;;;;4.33;58.98;100083.75;1740588;81;21058;-68
2021/05/05 02:05:47;;;;;;;4.67;3.60;;;;;;;4.33;59.04;100085.06;1864557;75;29058;-68
2021/05/05 02:08:29;;;;;;;6.85;3.98;;;;;;;4.24;59.17;100084.66;1822078;78;21056;-69
2021/05/05 02:10:56;;;;;;;7.92;3.85;;;;;;;4.19;59.31;100084.10;1814129;78;23010;-69
2021/05/05 02:13:24;;;;;;;6.50;3.62;;;;;;;4.15;59.45;100083.05;1817769;78;21060;-70
2021/05/05 02:15:53;;;;;;;7.50;3.72;;;;;;;4.11;59.57;100082.39;1814029;78;21100;-69
2021/05/05 02:18:23;;;;;;;6.15;3.60;;;;;;;4.09;59.75;100088.17;1821055;78;21131;-69
2021/05/05 02:20:52;;;;;;;6.12;4.00;;;;;;;4.07;59.90;100090.51;1823664;78;21111;-69
2021/05/05 02:23:20;;;;;;;7.62;3.58;;;;;;;4.03;60.05;100093.74;1817645;78;21555;-69
2021/05/05 02:25:48;;;;;;;9.73;3.98;;;;;;;4.00;60.13;100093.45;1802775;78;21099;-68
2021/05/05 02:28:16;;;;;;;4.58;3.30;;;;;;;3.98;60.20;100090.09;1764672;80;21422;-68
2021/05/05 02:30:58;;;;;;;8.90;4.05;;;;;;;3.98;60.32;100090.56;1778297;80;21330;-70
2021/05/05 02:33:26;;;;;;;7.05;3.90;;;;;;;3.99;60.44;100090.94;1776957;79;21066;-69
2021/05/05 02:35:54;;;;;;;6.87;3.50;;;;;;;3.99;60.50;100089.16;1766928;80;22913;-69
2021/05/05 02:38:22;;;;;;;7.75;3.95;;;;;;;4.01;60.57;100087.77;1762470;80;21122;-69
2021/05/05 02:40:50;;;;;;;6.50;3.80;;;;;;;4.05;60.60;100089.73;1761628;80;21153;-68
2021/05/05 02:43:18;;;;;;;6.80;3.80;;;;;;;4.07;60.63;100082.67;1762061;80;21098;-69
2021/05/05 02:45:46;;;;;;;9.80;4.37;;;;;;;4.11;60.67;100095.45;1765669;80;20900;-68
2021/05/05 02:48:14;;;;;;;6.53;4.30;;;;;;;4.14;60.67;100094.43;1769633;80;22058;-68
2021/05/05 02:50:43;;;;;;;6.62;4.03;;;;;;;4.15;60.71;100091.76;1778860;78;21153;-69
2021/05/05 02:53:10;;;;;;;6.33;3.87;;;;;;;4.16;60.74;100092.59;1759527;80;21561;-67
2021/05/05 02:55:38;;;;;;;8.35;3.95;;;;;;;4.17;60.91;100092.97;1766237;80;21127;-67
2021/05/05 02:58:06;;;;;;;5.58;4.15;;;;;;;4.17;60.92;100086.44;1769739;80;21327;-68
2021/05/05 03:00:33;;;;;;;9.75;4.08;;;;;;;4.19;60.95;100086.72;1767078;80;22020;-68
2021/05/05 03:03:01;;;;;;;6.65;3.90;;;;;;;4.23;60.96;100086.06;1767860;80;21094;-67
2021/05/05 03:05:28;;;;;;;5.60;4.30;;;;;;;4.27;60.92;100083.66;1771112;79;21333;-68
2021/05/05 03:07:56;;;;;;;9.40;4.22;;;;;;;4.29;61.04;100089.64;1770397;79;21078;-67
2021/05/05 03:10:23;;;;;;;5.08;4.05;;;;;;;4.31;61.12;100083.38;1769186;79;21556;-68
2021/05/05 03:12:52;;;;;;;6.15;3.92;;;;;;;4.34;61.25;100088.89;1781627;79;22054;-68
2021/05/05 03:15:21;;;;;;;6.12;4.10;;;;;;;4.38;61.40;100086.96;1775152;79;21476;-68
2021/05/05 03:17:50;;;;;;;8.05;4.53;;;;;;;4.41;61.44;100084.16;1752220;80;21168;-68
2021/05/05 03:20:17;;;;;;;10.58;4.75;;;;;;;4.45;61.44;100089.60;1785316;78;21067;-68
2021/05/05 03:22:45;;;;;;;7.97;4.42;;;;;;;4.50;61.52;100083.62;1788537;79;21497;-68
2021/05/05 03:25:12;;;;;;;7.45;4.22;;;;;;;4.51;61.54;100082.22;1790794;79;22034;-67
2021/05/05 03:27:40;;;;;;;6.17;4.25;;;;;;;4.53;61.59;100082.96;1783360;78;21607;-67
2021/05/05 03:30:09;;;;;;;6.40;3.87;;;;;;;4.54;61.63;100089.91;1771086;79;21165;-68
2021/05/05 03:32:37;;;;;;;6.70;4.22;;;;;;;4.55;61.76;100092.05;1787005;79;21058;-67
2021/05/05 03:35:06;;;;;;;4.62;3.83;;;;;;;4.57;61.91;100099.33;1777224;79;21496;-68
2021/05/05 03:37:34;;;;;;;6.55;4.65;;;;;;;4.61;62.28;100085.13;1771493;79;22062;-68
2021/05/05 03:40:05;;;;;;;9.43;5.22;;;;;;;4.68;62.32;100092.16;1770135;79;21165;-68
2021/05/05 03:42:32;;;;;;;8.15;5.62;;;;;;;4.74;62.55;100092.64;1771495;79;21146;-68
2021/05/05 03:45:00;;;;;;;8.30;5.42;;;;;;;4.83;62.78;100097.80;1774121;79;21157;-68
2021/05/05 03:47:27;;;;;;;9.18;5.80;;;;;;;4.91;63.08;100088.98;1790120;79;21054;-68
2021/05/05 03:49:55;;;;;;;10.82;6.30;;;;;;;5.01;63.37;100090.11;1786187;79;22130;-68
2021/05/05 03:52:23;;;;;;;9.60;6.05;;;;;;;5.12;63.64;100091.63;1798970;79;21137;-67
2021/05/05 03:54:50;;;;;;;11.88;6.37;;;;;;;5.23;63.78;100076.56;1788433;79;21149;-68
2021/05/05 03:57:18;;;;;;;10.50;6.35;;;;;;;5.34;64.04;100077.20;1790116;79;21070;-68
2021/05/05 03:59:46;;;;;;;8.65;5.75;;;;;;;5.44;64.21;100075.22;1774962;79;21034;-68
2021/05/05 04:02:13;;;;;;;11.88;6.10;;;;;;;5.55;64.29;100064.53;1781506;79;22562;-67
2021/05/05 04:04:41;;;;;;;8.83;6.40;;;;;;;5.65;64.45;100060.38;1775637;79;21180;-68
2021/05/05 04:07:08;;;;;;;9.10;6.60;;;;;;;5.73;64.65;100066.81;1768009;79;21169;-68
2021/05/05 04:09:36;;;;;;;10.82;6.58;;;;;;;5.85;64.74;100061.25;1788516;80;21141;-67
2021/05/05 04:12:05;;;;;;;8.45;6.33;;;;;;;5.96;64.86;100054.03;1786045;80;21379;-68
2021/05/05 04:14:33;;;;;;;10.32;5.85;;;;;;;6.06;65.03;100056.41;1769141;80;21889;-68
2021/05/05 04:17:18;;;;;;;9.68;6.03;;;;;;;6.17;65.17;100047.36;1779669;80;21122;-67
2021/05/05 04:20:05;;;;;;;8.25;5.55;;;;;;;6.31;65.50;100044.67;1769528;80;21129;-68
2021/05/05 04:22:51;;;;;;;11.20;5.70;;;;;;;6.47;65.95;100042.34;1776977;80;21113;-67
2021/05/05 04:25:38;;;;;;;9.68;6.08;;;;;;;6.63;66.18;100039.50;1782132;80;21043;-68
2021/05/05 04:28:06;;;;;;;6.72;4.58;;;;;;;6.78;66.36;100037.98;1770111;80;22045;-70
2021/05/05 04:30:33;;;;;;;10.50;5.00;;;;;;;6.94;66.62;100027.72;1782120;80;21133;-69
2021/05/05 04:33:00;;;;;;;7.58;4.75;;;;;;;7.08;66.92;100032.38;1771118;80;21125;-70
2021/05/05 04:35:29;;;;;;;8.25;4.08;;;;;;;7.26;67.08;100032.88;1777749;80;21468;-69
2021/05/05 04:37:57;;;;;;;6.83;4.40;;;;;;;7.45;67.23;100025.36;1777694;79;21512;-70
2021/05/05 04:40:25;;;;;;;7.78;4.62;;;;;;;7.63;67.19;100023.67;1764587;80;21888;-69
2021/05/05 04:42:53;;;;;;;5.25;4.15;;;;;;;7.79;67.13;100028.15;1785243;80;21205;-69
2021/05/05 04:45:21;;;;;;;6.53;3.92;;;;;;;7.97;67.10;100036.00;1785950;80;21113;-70
2021/05/05 04:47:50;;;;;;;6.75;4.08;;;;;;;8.14;66.88;100041.33;1792886;80;21180;-70
2021/05/05 04:50:18;;;;;;;10.80;3.95;;;;;;;8.29;66.76;100044.59;1770319;79;21050;-72
2021/05/05 04:52:46;;;;;;;6.97;4.33;;;;;;;8.44;66.74;100038.22;1764456;81;21825;-70
2021/05/05 04:55:14;;;;;;;7.78;4.00;;;;;;;8.59;66.66;100042.33;1768730;78;21184;-70
2021/05/05 04:57:42;;;;;;;7.62;3.90;;;;;;;8.74;66.52;100036.34;1767583;79;21117;-71
2021/05/05 05:00:12;;;;;;;5.17;3.58;;;;;;;8.90;66.17;100032.06;1771357;80;21170;-71
2021/05/05 05:02:39;;;;;;;4.60;3.00;;;;;;;9.05;65.73;100032.16;1766327;80;21038;-70
2021/05/05 05:05:07;;;;;;;6.30;3.20;;;;;;;9.19;65.72;100029.77;1789174;79;22045;-70
2021/05/05 05:07:36;;;;;;;7.35;3.20;;;;;;;9.33;65.57;100024.71;1783198;80;21359;-71
2021/05/05 05:10:06;;;;;;;6.90;3.80;;;;;;;9.48;65.33;100028.77;1771051;80;21118;-70
2021/05/05 05:12:33;;;;;;;7.58;3.58;;;;;;;9.63;64.90;100032.79;1769869;80;21537;-70
2021/05/05 05:15:02;;;;;;;7.80;3.40;;;;;;;9.80;64.93;100035.87;1769595;80;21094;-70
2021/05/05 05:17:30;;;;;;;7.62;3.10;;;;;;;10.00;64.45;100037.22;1765230;80;22111;-70
2021/05/05 05:19:58;;;;;;;4.87;2.87;;;;;;;10.23;63.81;100046.38;1758631;81;21106;-70
2021/05/05 05:22:26;;;;;;;4.47;3.25;;;;;;;10.40;62.28;100051.58;1760753;80;21225;-70
2021/05/05 05:24:53;;;;;;;5.80;2.72;;;;;;;10.44;61.40;100053.85;1786904;78;21102;-70
2021/05/05 05:27:21;;;;;;;5.65;2.80;;;;;;;10.42;61.29;100042.59;1788028;80;22463;-70
2021/05/05 05:29:49;;;;;;;4.10;3.02;;;;;;;10.44;61.26;100049.89;1771469;80;22604;-70
2021/05/05 05:32:18;;;;;;;5.45;3.08;;;;;;;10.46;61.28;100051.08;1788006;80;21074;-70
2021/05/05 05:34:46;;;;;;;4.95;2.70;;;;;;;10.48;60.94;100047.34;1784442;80;21071;-70
2021/05/05 05:37:16;;;;;;;7.85;3.33;;;;;;;10.52;60.91;100043.48;1774681;80;21074;-69
2021/05/05 05:39:45;;;;;;;7.53;3.12;;;;;;;10.58;61.26;100032.88;1758884;80;21153;-71
2021/05/05 05:42:12;;;;;;;5.62;3.55;;;;;;;10.69;61.21;100027.51;1759015;80;21884;-71
2021/05/05 05:44:41;;;;;;;7.25;3.10;;;;;;;10.80;61.20;100022.63;1764253;80;21600;-70
2021/05/05 05:47:08;;;;;;;5.30;2.85;;;;;;;10.95;60.92;100029.73;1775816;80;21066;-71
2021/05/05 05:49:36;;;;;;;5.28;2.90;;;;;;;11.11;60.20;100030.08;1770877;80;21062;-71
2021/05/05 05:52:05;;;;;;;5.33;2.45;;;;;;;11.26;59.52;100043.27;1767927;80;21078;-72
2021/05/05 05:54:33;;;;;;;3.33;2.77;;;;;;;11.31;58.87;100026.53;1774919;80;22931;-72
2021/05/05 05:57:01;;;;;;;3.12;2.60;;;;;;;11.35;58.77;100025.77;1780351;80;21124;-73
2021/05/05 05:59:29;;;;;;;3.72;2.67;;;;;;;11.38;58.79;100015.73;1745069;80;21418;-71
2021/05/05 06:01:57;;;;;;;6.40;2.98;;;;;;;11.42;58.66;100017.16;1759246;80;21180;-72
2021/05/05 06:04:25;;;;;;;9.18;2.80;;;;;;;11.41;58.60;100018.13;1769857;79;21073;-72
2021/05/05 06:06:53;;;;;;;2.90;2.35;;;;;;;11.42;58.82;100009.71;1768624;80;22011;-72
2021/05/05 06:09:21;;;;;;;7.60;2.70;;;;;;;11.45;59.05;100004.97;1762983;81;21608;-72
2021/05/05 06:11:49;;;;;;;7.33;2.65;;;;;;;11.51;59.05;100006.25;1775002;80;21066;-72
2021/05/05 06:14:18;;;;;;;5.22;2.30;;;;;;;11.60;59.13;100000.63;1795713;79;21085;-72
2021/05/05 06:16:46;;;;;;;6.67;2.77;;;;;;;11.75;59.02;99993.45;1767148;80;21073;-73
2021/05/05 06:19:14;;;;;;;3.42;2.37;;;;;;;11.92;58.30;99987.99;1764373;80;21895;-71
2021/05/05 06:21:42;;;;;;;4.12;2.55;;;;;;;12.07;57.62;99983.13;1773454;80;21121;-71
2021/05/05 06:24:11;;;;;;;4.95;2.70;;;;;;;12.17;57.44;99975.17;1771246;80;21181;-70
2021/05/05 06:26:39;;;;;;;5.55;2.75;;;;;;;12.26;57.77;99967.21;1764269;80;21065;-70
2021/05/05 06:29:06;;;;;;;5.03;2.60;;;;;;;12.39;57.67;99963.41;1764359;81;21160;-70
2021/05/05 06:31:38;;;;;;;6.20;2.87;;;;;;;12.52;57.35;99963.43;1770515;80;21877;-70
2021/05/05 06:34:05;;;;;;;4.60;2.92;;;;;;;12.64;57.39;99958.78;1767156;80;21069;-71
2021/05/05 06:36:33;;;;;;;4.60;3.00;;;;;;;12.76;57.30;99969.57;1795588;80;21118;-70
2021/05/05 06:39:08;;;;;;;6.62;2.55;;;;;;;12.90;57.04;99978.84;1767864;80;21142;-71
2021/05/05 06:41:36;;;;;;;3.83;2.05;;;;;;;13.05;56.52;99977.88;1771451;80;21133;-70
2021/05/05 06:44:07;;;;;;;3.30;2.30;;;;;;;13.11;56.07;99983.41;1795718;80;22052;-71
2021/05/05 06:46:35;;;;;;;10.25;2.42;;;;;;;13.13;55.27;99980.14;1795648;80;21133;-72
2021/05/05 06:49:04;;;;;;;8.28;2.70;;;;;;;13.16;55.72;99979.84;1764325;80;21149;-71
2021/05/05 06:51:32;;;;;;;5.12;2.55;;;;;;;13.27;55.58;99989.94;1769846;80;21544;-71
2021/05/05 06:54:00;;;;;;;13.50;6.17;;;;;;;13.38;55.25;99975.12;1765928;80;21620;-71
2021/05/05 06:56:28;;;;;;;4.65;2.90;;;;;;;13.51;55.45;99974.30;1782334;80;22038;-71
2021/05/05 06:58:56;;;;;;;7.90;2.77;;;;;;;13.61;54.64;99971.58;1787994;80;21074;-71
2021/05/05 07:01:24;;;;;;;6.50;3.00;;;;;;;13.70;54.74;99971.96;1772935;80;21149;-71
2021/05/05 07:03:52;;;;;;;5.35;3.22;;;;;;;13.81;54.98;99973.58;1780608;80;21141;-71
2021/05/05 07:06:20;;;;;;;9.53;3.62;;;;;;;13.92;53.70;99972.02;1796337;79;21046;-71
2021/05/05 07:08:49;;;;;;;6.28;2.70;;;;;;;13.96;53.49;99979.51;1783827;79;22106;-70
2021/05/05 07:11:16;;;;;;;3.12;2.10;;;;;;;14.02;53.81;99966.12;1765639;79;21271;-72
2021/05/05 07:13:46;;;;;;;6.17;2.55;;;;;;;14.08;53.30;99962.83;1773727;79;21525;-72
2021/05/05 07:16:15;;;;;;;9.35;2.70;;;;;;;14.12;53.38;99961.55;1792150;78;21062;-72
2021/05/05 07:18:43;;;;;;;5.55;2.25;;;;;;;14.23;53.40;99950.67;1789700;79;21428;-70
2021/05/05 07:21:10;;;;;;;4.60;2.65;;;;;;;14.32;53.20;99949.74;1777814;79;22050;-70
2021/05/05 07:23:38;;;;;;;4.75;2.42;;;;;;;14.43;53.39;99967.73;1777178;79;21066;-71
2021/05/05 07:26:05;;;;;;;4.95;2.55;;;;;;;14.54;52.39;99955.55;1767449;81;21476;-71
2021/05/05 07:28:33;;;;;;;7.62;2.40;;;;;;;14.66;52.32;99952.94;1788405;79;21153;-70
2021/05/05 07:31:00;;;;;;;5.20;2.45;;;;;;;14.86;51.37;99953.53;1777854;79;21277;-71
2021/05/05 07:33:27;;;;;;;4.20;2.05;;;;;;;15.04;52.15;99945.47;1781513;79;23357;-70
2021/05/05 07:35:58;;;;;;;8.93;2.22;;;;;;;15.19;51.45;99933.23;1788822;79;21362;-71
2021/05/05 07:44:36;;;;;;;11.93;1.67;;;;;;;15.60;49.94;99950.60;1769375;79;21343;-72
2021/05/05 07:46:34;;;;;;;2.85;1.35;;;;;;;15.70;48.92;99944.16;1785239;79;21736;-72
2021/05/05 07:49:02;;;;;;;3.42;1.65;;;;;;;15.74;47.82;99929.53;1784443;79;21093;-70
2021/05/05 07:51:30;;;;;;;7.15;2.08;;;;;;;15.80;48.48;99930.67;1727823;81;21081;-70
2021/05/05 07:53:58;;;;;;;6.12;1.60;;;;;;;15.92;47.73;99931.17;1720642;82;21128;-71
2021/05/05 07:56:25;;;;;;;6.15;1.75;;;;;;;16.05;47.96;99929.36;1693561;82;21156;-71
2021/05/05 07:58:52;;;;;;;8.75;1.52;;;;;;;16.19;47.95;99916.16;1715210;83;21837;-71
2021/05/05 08:01:19;;;;;;;7.35;1.50;;;;;;;16.42;47.74;99912.81;1694963;83;21191;-71
2021/05/05 08:03:48;;;;;;;3.55;1.35;;;;;;;16.62;46.61;99916.74;1732374;82;21376;-71
2021/05/05 08:06:16;;;;;;;4.08;1.60;;;;;;;16.70;45.91;99907.42;1739649;82;21072;-71
2021/05/05 08:08:45;;;;;;;6.15;1.60;;;;;;;16.83;45.76;99902.86;1714724;83;21151;-71
2021/05/05 08:11:13;;;;;;;5.45;1.57;;;;;;;16.98;45.75;99898.94;1722650;83;22613;-70
2021/05/05 08:13:41;;;;;;;2.62;1.60;;;;;;;17.09;45.24;99891.90;1728623;81;21186;-71
2021/05/05 08:16:09;;;;;;;5.22;1.50;;;;;;;17.26;45.33;99894.77;1723436;81;21531;-71
2021/05/05 08:18:37;;;;;;;8.48;1.52;;;;;;;17.37;43.92;99890.86;1723344;81;21080;-71
2021/05/05 08:21:07;;;;;;;10.93;1.60;;;;;;;17.43;44.78;99890.98;1723490;81;21072;-71
2021/05/05 08:23:36;;;;;;;5.62;2.00;;;;;;;17.53;44.15;99871.23;1728639;81;22079;-71
2021/05/05 08:26:06;;;;;;;6.75;1.70;;;;;;;17.69;44.11;99871.97;1722487;83;21108;-70
2021/05/05 08:28:35;;;;;;;5.00;2.05;;;;;;;17.93;44.30;99868.23;1727487;81;21127;-72
2021/05/05 08:31:04;;;;;;;2.33;1.52;;;;;;;18.13;43.09;99858.36;1735501;81;21549;-71
2021/05/05 08:33:33;;;;;;;5.87;1.57;;;;;;;18.30;42.76;99857.17;1729455;81;21419;-70
2021/05/05 08:36:03;;;;;;;6.92;1.62;;;;;;;18.42;42.47;99857.02;1724104;81;22065;-71
2021/05/05 08:38:31;;;;;;;5.40;1.60;;;;;;;18.42;41.54;99865.55;1722598;83;21178;-71
2021/05/05 08:40:59;;;;;;;2.12;1.42;;;;;;;18.30;41.61;99854.50;1722602;83;21107;-71
2021/05/05 08:43:27;;;;;;;3.42;1.42;;;;;;;18.30;41.18;99854.50;1728096;81;21084;-71
2021/05/05 08:45:58;;;;;;;2.62;1.40;;;;;;;18.29;41.37;99851.00;1722775;81;21223;-71
2021/05/05 08:48:25;;;;;;;5.47;1.80;;;;;;;18.25;41.56;99849.72;1722619;83;21975;-71
2021/05/05 08:50:53;;;;;;;4.67;1.90;;;;;;;18.14;41.48;99859.50;1722468;83;21610;-70
2021/05/05 08:53:21;;;;;;;2.90;1.20;;;;;;;18.01;41.36;99844.62;1729153;81;21187;-70
2021/05/05 08:55:48;;;;;;;2.87;1.67;;;;;;;17.87;41.73;99858.30;1723360;81;21104;-70
2021/05/05 08:58:16;;;;;;;6.80;1.60;;;;;;;17.81;42.55;99848.83;1722655;83;21380;-70
2021/05/05 09:00:44;;;;;;;3.60;1.30;;;;;;;17.84;41.49;99855.13;1722370;83;21901;-70
2021/05/05 09:03:12;;;;;;;4.20;1.32;;;;;;;17.82;41.83;99847.31;1725984;81;21190;-71
2021/05/05 09:05:54;;;;;;;3.27;1.52;;;;;;;17.79;41.61;99849.02;1723905;81;21187;-71
2021/05/05 09:08:22;;;;;;;2.72;1.60;;;;;;;17.77;41.68;99851.55;1728199;81;21190;-70
2021/05/05 09:11:06;;;;;;;2.75;1.40;;;;;;;17.84;41.96;99848.45;1734838;81;21131;-71
2021/05/05 09:13:55;;;;;;;4.00;1.45;;;;;;;17.96;41.72;99845.18;1720211;81;22016;-71
2021/05/05 09:16:27;;;;;;;2.02;1.42;;;;;;;18.01;41.48;99851.30;1722664;83;21234;-69
2021/05/05 09:19:09;;;;;;;7.80;1.60;;;;;;;17.99;41.21;99843.98;1729489;81;21158;-72
2021/05/05 09:21:43;;;;;;;2.60;1.50;;;;;;;18.01;42.04;99835.27;1723676;81;21087;-71
2021/05/05 09:24:27;;;;;;;4.78;1.60;;;;;;;18.11;41.26;99823.80;1731374;81;21138;-71
2021/05/05 09:27:07;;;;;;;3.77;1.32;;;;;;;18.26;41.13;99813.95;1751388;81;22114;-71
2021/05/05 09:29:49;;;;;;;3.83;1.40;;;;;;;18.46;40.69;99812.88;1703930;83;21527;-69
2021/05/05 09:32:19;;;;;;;4.40;1.60;;;;;;;18.68;41.11;99811.11;1739038;81;21068;-72
2021/05/05 09:35:01;;;;;;;9.75;1.70;;;;;;;18.94;40.03;99808.42;1728185;81;21400;-71
2021/05/05 09:37:30;;;;;;;3.45;1.30;;;;;;;19.03;39.90;99804.09;1741306;81;21060;-69
2021/05/05 09:40:08;;;;;;;2.62;1.27;;;;;;;19.21;39.27;99833.11;1748228;81;22083;-69
2021/05/05 09:42:36;;;;;;;4.35;1.55;;;;;;;19.34;38.67;99800.27;1737997;81;21102;-68
2021/05/05 09:45:10;;;;;;;4.22;1.62;;;;;;;19.33;39.06;99799.95;1738972;81;21223;-69
2021/05/05 09:47:56;;;;;;;4.70;1.27;;;;;;;19.47;39.00;99807.58;1725519;81;21079;-69
2021/05/05 09:50:44;;;;;;;3.87;1.40;;;;;;;19.71;38.56;99805.86;1737570;81;21135;-70
2021/05/05 09:53:23;;;;;;;3.52;1.40;;;;;;;19.83;38.43;99791.41;1725285;81;22124;-70
2021/05/05 09:56:00;;;;;;;5.58;1.70;;;;;;;19.85;37.54;99792.86;1722546;82;21474;-70
2021/05/05 09:58:39;;;;;;;7.10;1.30;;;;;;;19.62;37.47;99786.42;1742591;81;21068;-70
2021/05/05 10:01:20;;;;;;;4.35;1.40;;;;;;;19.43;38.46;99795.92;1724997;81;22038;-70
2021/05/05 10:03:55;;;;;;;2.95;1.40;;;;;;;19.39;38.18;99797.31;1728127;81;21076;-70
2021/05/05 10:06:33;;;;;;;4.95;1.30;;;;;;;19.43;38.55;99785.20;1723532;81;22953;-71
2021/05/05 10:09:08;;;;;;;3.27;1.42;;;;;;;19.64;38.52;99796.42;1726181;81;21534;-71
2021/05/05 10:11:43;;;;;;;3.40;1.60;;;;;;;20.03;38.72;99792.88;1725780;83;21147;-71
2021/05/05 10:14:14;;;;;;;4.87;1.30;;;;;;;20.16;36.69;99823.26;1739303;81;21257;-71
2021/05/05 10:16:48;;;;;;;4.25;1.50;;;;;;;20.04;37.24;99821.33;1737591;81;21154;-71
2021/05/05 10:19:21;;;;;;;3.25;1.27;;;;;;;19.93;37.71;99783.33;1749237;81;22052;-72
2021/05/05 10:21:53;;;;;;;6.65;1.40;;;;;;;20.00;37.82;99782.87;1733829;81;21083;-72
2021/05/05 10:24:24;;;;;;;4.05;1.30;;;;;;;20.16;37.31;99794.28;1745838;81;21194;-70
2021/05/05 10:26:52;;;;;;;3.90;1.45;;;;;;;20.17;36.11;99779.84;1737013;81;21549;-70
2021/05/05 10:29:21;;;;;;;10.00;1.70;;;;;;;19.98;36.24;99773.37;1733600;82;21486;-70
2021/05/05 10:31:53;;;;;;;3.77;1.20;;;;;;;19.88;37.12;99789.81;1747898;81;23410;-71
2021/05/05 10:34:23;;;;;;;6.47;1.40;;;;;;;19.99;37.13;99778.53;1739928;81;22687;-70
2021/05/05 10:37:00;;;;;;;7.90;1.57;;;;;;;20.16;36.26;99792.94;1709814;82;21091;-70
2021/05/05 10:39:33;;;;;;;3.55;1.32;;;;;;;20.09;36.72;99776.84;1733571;82;21112;-70
2021/05/05 10:42:05;;;;;;;10.78;1.60;;;;;;;20.00;36.69;99768.12;1749279;81;21062;-71
2021/05/05 10:44:41;;;;;;;6.47;1.67;;;;;;;20.17;36.97;99779.84;1755158;81;22129;-71
2021/05/05 10:47:34;;;;;;;4.08;1.40;;;;;;;20.49;36.86;99769.83;1763852;80;21067;-71
2021/05/05 10:50:06;;;;;;;5.40;1.40;;;;;;;20.89;35.81;99759.72;1764028;81;21159;-71
2021/05/05 10:52:53;;;;;;;4.10;1.25;;;;;;;21.24;35.15;99777.34;1755306;81;21139;-71
2021/05/05 10:55:38;;;;;;;4.15;1.30;;;;;;;21.24;34.42;99751.00;1757018;81;21087;-70
2021/05/05 10:58:17;;;;;;;8.15;1.32;;;;;;;21.02;34.06;99755.19;1742906;81;21933;-71
2021/05/05 11:00:47;;;;;;;4.60;1.17;;;;;;;20.90;34.69;99768.08;1733645;81;21692;-71
2021/05/05 11:03:20;;;;;;;3.67;1.02;;;;;;;20.76;34.56;99755.16;1758378;81;21146;-71
2021/05/05 11:05:48;;;;;;;2.45;1.50;;;;;;;20.59;35.14;99746.64;1729580;81;21376;-71
2021/05/05 11:08:26;;;;;;;8.33;1.40;;;;;;;20.50;35.89;99747.33;1733255;81;21171;-71
2021/05/05 11:10:57;;;;;;;2.27;1.10;;;;;;;20.50;35.49;99746.52;1720842;82;22056;-71
2021/05/05 11:13:33;;;;;;;5.87;1.27;;;;;;;20.40;34.80;99752.22;1733073;82;21147;-71
2021/05/05 11:16:00;;;;;;;2.87;1.25;;;;;;;20.37;35.72;99749.13;1725783;82;21139;-70
2021/05/05 11:18:39;;;;;;;8.00;1.92;;;;;;;20.50;35.44;99747.33;1725204;82;21459;-71
2021/05/05 11:21:33;;;;;;;4.22;1.40;;;;;;;20.62;35.08;99738.18;1736851;82;21074;-73
2021/05/05 11:24:01;;;;;;;1.45;0.93;;;;;;;20.64;35.70;99728.58;1733855;82;22975;-70
2021/05/05 11:26:32;;;;;;;3.42;1.42;;;;;;;20.70;35.76;99739.86;1739407;81;21113;-71
2021/05/05 11:29:02;;;;;;;6.78;1.40;;;;;;;20.78;35.68;99729.77;1729493;81;21653;-71
2021/05/05 11:31:54;;;;;;;5.70;1.42;;;;;;;20.77;35.11;99724.60;1722365;82;21145;-71
2021/05/05 11:34:28;;;;;;;5.50;1.42;;;;;;;20.61;35.43;99723.62;1735017;82;21549;-70
2021/05/05 11:37:06;;;;;;;4.92;1.20;;;;;;;20.41;35.34;99728.91;1741142;82;22138;-72
2021/05/05 11:39:54;;;;;;;2.98;1.12;;;;;;;20.30;35.24;99724.95;1732210;82;21218;-70
2021/05/05 11:42:28;;;;;;;6.67;1.50;;;;;;;20.20;35.33;99723.16;1727422;82;21158;-71
2021/05/05 11:45:05;;;;;;;2.37;1.20;;;;;;;20.06;36.05;99724.94;1722563;82;21104;-73
2021/05/05 11:47:39;;;;;;;5.22;1.30;;;;;;;20.01;36.43;99721.52;1717205;83;21222;-72
2021/05/05 11:50:15;;;;;;;3.42;1.25;;;;;;;20.06;35.55;99720.09;1729419;82;22062;-73
2021/05/05 11:52:47;;;;;;;5.22;1.30;;;;;;;20.10;35.58;99721.36;1724649;81;21135;-73